createdAt,value
2022-08-03T00:00:11.631Z,101411.44
2022-08-03T00:05:13.150Z,101419.09
2022-08-03T00:10:14.705Z,101414.41
2022-08-03T00:15:17.122Z,101418.69
2022-08-03T00:20:18.858Z,101412.75
2022-08-03T00:25:20.394Z,101412.75
2022-08-03T00:30:21.908Z,101405.69
2022-08-03T00:35:50.351Z,101400.19
2022-08-03T00:40:52.012Z,101406.53
2022-08-03T00:45:54.720Z,101405.94
2022-08-03T00:50:56.386Z,101400.34
2022-08-03T00:55:58.476Z,101396.13
2022-08-03T01:01:00.157Z,101383.13
2022-08-03T01:06:18.056Z,101384.84
2022-08-03T01:11:30.723Z,101367.78
2022-08-03T01:16:40.577Z,101367.78
2022-08-03T01:22:00.644Z,101370.34
2022-08-03T01:27:31.200Z,101372.47
2022-08-03T01:32:53.531Z,101369.50
2022-08-03T01:38:05.720Z,101370.97
2022-08-03T01:43:11.102Z,101364.38
2022-08-03T01:48:17.312Z,101355.44
2022-08-03T01:53:20.517Z,101360.97
2022-08-03T01:58:24.927Z,101342.66
2022-08-03T02:03:28.703Z,101352.03
2022-08-03T02:08:32.370Z,101350.78
2022-08-03T02:13:35.189Z,101343.09
2022-08-03T02:18:40.091Z,101346.75
2022-08-03T02:23:41.941Z,101347.59
2022-08-03T02:28:49.533Z,101344.81
2022-08-03T02:33:58.967Z,101340.34
2022-08-03T02:39:01.634Z,101349.72
2022-08-03T02:44:09.549Z,101336.53
2022-08-03T02:49:49.501Z,101336.53
2022-08-03T02:54:37.493Z,101327.16
2022-08-03T02:59:41.002Z,101333.34
2022-08-03T03:05:50.629Z,101336.09
2022-08-03T03:10:07.189Z,101331.63
2022-08-03T03:15:09.090Z,101336.78
2022-08-03T03:20:12.010Z,101327.41
2022-08-03T03:25:13.607Z,101333.78
2022-08-03T03:30:15.224Z,101336.56
2022-08-03T03:35:17.061Z,101333.78
2022-08-03T03:40:19.499Z,101330.59
2022-08-03T03:45:21.869Z,101328.91
2022-08-03T03:50:24.469Z,101330.16
2022-08-03T03:55:26.010Z,101332.28
2022-08-03T04:00:27.621Z,101327.19
2022-08-03T04:05:47.971Z,101340.38
2022-08-03T04:10:59.248Z,101346.16
2022-08-03T04:16:02.140Z,101342.31
2022-08-03T04:21:05.894Z,101346.34
2022-08-03T04:26:11.993Z,101347.19
2022-08-03T04:31:16.194Z,101345.09
2022-08-03T04:36:23.703Z,101357.19
2022-08-03T04:41:26.701Z,101361.47
2022-08-03T04:46:33.011Z,101368.94
2022-08-03T04:51:35.129Z,101361.91
2022-08-03T04:56:39.485Z,101369.56
2022-08-03T05:01:43.852Z,101364.84
2022-08-03T05:06:48.010Z,101364.66
2022-08-03T05:11:56.944Z,101365.06
2022-08-03T05:16:58.466Z,101355.50
2022-08-03T05:22:00.058Z,101365.69
2022-08-03T05:27:01.652Z,101365.66
2022-08-03T05:32:08.064Z,101369.09
2022-08-03T05:37:17.792Z,101376.72
2022-08-03T05:42:19.331Z,101367.34
2022-08-03T05:47:20.851Z,101372.22
2022-08-03T05:52:22.456Z,101361.16
2022-08-03T05:57:25.580Z,101368.16
2022-08-03T06:02:27.620Z,101359.13
2022-08-03T06:07:29.482Z,101360.16
2022-08-03T06:12:31.354Z,101369.88
2022-08-03T06:17:37.746Z,101363.59
2022-08-03T06:22:51.065Z,101375.47
2022-08-03T06:27:52.997Z,101360.94
2022-08-03T06:32:54.914Z,101361.31
2022-08-03T06:37:57.027Z,101373.84
2022-08-03T06:42:59.812Z,101380.00
2022-08-03T06:48:06.726Z,101386.72
2022-08-03T06:53:09.175Z,101384.47
2022-08-03T06:58:19.734Z,101392.75
2022-08-03T07:03:21.832Z,101383.91
2022-08-03T07:08:33.388Z,101385.91
2022-08-03T07:13:35.933Z,101389.50
2022-08-03T07:18:41.037Z,101390.69
2022-08-03T07:23:42.576Z,101400.63
2022-08-03T07:28:44.069Z,101397.13
2022-08-03T07:33:46.141Z,101408.31
2022-08-03T07:38:47.699Z,101403.91
2022-08-03T07:43:49.241Z,101417.25
2022-08-03T07:48:50.827Z,101420.97
2022-08-03T07:53:53.001Z,101421.41
2022-08-03T07:58:55.769Z,101420.84
2022-08-03T08:03:57.281Z,101433.50
2022-08-03T08:09:01.762Z,101423.06
2022-08-03T08:14:03.997Z,101429.00
2022-08-03T08:19:05.947Z,101422.47
2022-08-03T08:24:15.275Z,101435.19
2022-08-03T08:29:23.160Z,101433.75
2022-08-03T08:34:24.923Z,101433.00
2022-08-03T08:39:26.433Z,101433.84
2022-08-03T08:44:29.974Z,101436.25
2022-08-03T08:49:33.050Z,101429.16
2022-08-03T08:54:38.438Z,101436.06
2022-08-03T08:59:47.932Z,101432.78
2022-08-03T09:04:51.662Z,101429.88
2022-08-03T09:10:10.638Z,101431.56
2022-08-03T09:15:25.663Z,101441.75
2022-08-03T09:20:30.651Z,101440.56
2022-08-03T09:25:39.492Z,101427.22
2022-08-03T09:30:43.448Z,101434.59
2022-08-03T09:35:54.038Z,101439.75
2022-08-03T09:41:00.459Z,101446.38
2022-08-03T09:46:03.252Z,101453.50
2022-08-03T09:51:13.908Z,101455.63
2022-08-03T09:56:44.127Z,101452.03
2022-08-03T10:01:45.711Z,101453.56
2022-08-03T10:07:05.813Z,101458.94
2022-08-03T10:12:12.326Z,101457.75
2022-08-03T10:17:14.205Z,101465.75
2022-08-03T10:22:19.310Z,101460.13
2022-08-03T10:27:23.123Z,101469.56
2022-08-03T10:32:49.746Z,101462.09
2022-08-03T10:38:17.495Z,101463.31
2022-08-03T10:43:22.971Z,101467.50
2022-08-03T10:48:26.092Z,101459.25
2022-08-03T10:53:38.418Z,101449.94
2022-08-03T10:58:53.139Z,101459.25
2022-08-03T11:03:58.811Z,101444.31
2022-08-03T11:09:16.751Z,101444.81
2022-08-03T11:14:21.854Z,101440.19
2022-08-03T11:19:27.659Z,101447.22
2022-08-03T11:24:42.588Z,101442.47
2022-08-03T11:30:08.724Z,101436.44
2022-08-03T11:35:14.468Z,101444.84
2022-08-03T11:40:33.102Z,101440.53
2022-08-03T11:45:35.316Z,101443.53
2022-08-03T11:50:38.024Z,101442.09
2022-08-03T11:55:42.016Z,101428.69
2022-08-03T12:00:43.660Z,101431.88
2022-08-03T12:05:53.893Z,101429.78
2022-08-03T12:10:58.185Z,101437.72
2022-08-03T12:15:59.765Z,101436.66
2022-08-03T12:21:10.234Z,101421.56
2022-08-03T12:26:17.974Z,101433.91
2022-08-03T12:31:19.722Z,101429.91
2022-08-03T12:36:21.267Z,101429.66
2022-08-03T12:41:35.391Z,101431.13
2022-08-03T12:46:46.942Z,101420.66
2022-08-03T12:51:52.026Z,101424.63
2022-08-03T12:57:15.562Z,101424.63
2022-08-03T13:02:23.644Z,101422.34
2022-08-03T13:07:25.626Z,101421.16
2022-08-03T13:12:29.877Z,101422.88
2022-08-03T13:17:31.426Z,101441.16
2022-08-03T13:22:33.565Z,101429.13
2022-08-03T13:28:03.922Z,101423.09
2022-08-03T13:32:58.610Z,101415.28
2022-08-03T13:38:00.413Z,101424.31
2022-08-03T13:43:01.956Z,101419.63
2022-08-03T13:48:03.644Z,101422.16
2022-08-03T13:53:05.158Z,101424.59
2022-08-03T13:58:09.549Z,101418.94
2022-08-03T14:03:15.014Z,101422.59
2022-08-03T14:08:17.106Z,101422.53
2022-08-03T14:13:18.623Z,101423.97
2022-08-03T14:18:29.061Z,101433.75
2022-08-03T14:23:37.600Z,101432.66
2022-08-03T14:28:39.382Z,101443.16
2022-08-03T14:33:40.964Z,101416.69
2022-08-03T14:38:42.479Z,101435.63
2022-08-03T14:44:00.579Z,101419.50
2022-08-03T14:50:30.373Z,101420.28
2022-08-03T14:54:26.818Z,101423.22
2022-08-03T14:59:28.368Z,101412.16
2022-08-03T15:04:49.917Z,101407.69
2022-08-03T15:09:51.465Z,101413.44
2022-08-03T15:14:53.031Z,101413.91
2022-08-03T15:20:01.680Z,101391.19
2022-08-03T15:26:03.694Z,101410.59
2022-08-03T15:30:27.758Z,101393.00
2022-08-03T15:35:29.518Z,101397.22
2022-08-03T15:40:31.025Z,101397.72
2022-08-03T15:45:35.271Z,101399.03
2022-08-03T15:50:37.765Z,101410.66
2022-08-03T15:55:42.028Z,101405.91
2022-08-03T16:00:43.777Z,101405.06
2022-08-03T16:05:45.283Z,101402.25
2022-08-03T16:10:47.888Z,101400.50
2022-08-03T16:15:50.182Z,101404.97
2022-08-03T16:20:51.706Z,101395.59
2022-08-03T16:25:53.565Z,101408.81
2022-08-03T16:30:55.101Z,101405.94
2022-08-03T16:35:57.230Z,101395.25
2022-08-03T16:40:58.739Z,101399.50
2022-08-03T16:46:03.538Z,101401.69
2022-08-03T16:51:05.122Z,101393.16
2022-08-03T16:56:10.110Z,101385.72
2022-08-03T17:01:22.021Z,101394.00
2022-08-03T17:06:26.987Z,101389.75
2022-08-03T17:11:38.001Z,101394.91
2022-08-03T17:16:40.398Z,101391.72
2022-08-03T17:22:01.767Z,101391.38
2022-08-03T17:27:18.549Z,101393.03
2022-08-03T17:32:33.265Z,101380.69
2022-08-03T17:37:57.744Z,101383.38
2022-08-03T17:42:58.852Z,101372.03
2022-08-03T17:48:00.640Z,101375.00
2022-08-03T17:53:15.410Z,101375.22
2022-08-03T17:58:54.973Z,101370.09
2022-08-03T18:04:02.686Z,101378.59
2022-08-03T18:10:03.352Z,101369.50
2022-08-03T18:14:57.144Z,101365.78
2022-08-03T18:20:02.611Z,101367.03
2022-08-03T18:25:07.828Z,101359.84
2022-08-03T18:30:12.213Z,101365.94
2022-08-03T18:35:15.080Z,101363.78
2022-08-03T18:40:20.973Z,101359.66
2022-08-03T18:45:57.141Z,101358.34
2022-08-03T18:51:12.277Z,101351.56
2022-08-03T18:56:43.130Z,101352.19
2022-08-03T19:01:58.199Z,101349.28
2022-08-03T19:07:09.196Z,101339.25
2022-08-03T19:12:37.535Z,101342.75
2022-08-03T19:17:50.150Z,101360.06
2022-08-03T19:22:56.647Z,101361.41
2022-08-03T19:28:00.546Z,101372.31
2022-08-03T19:33:10.306Z,101370.25
2022-08-03T19:38:12.119Z,101370.94
2022-08-03T19:43:21.857Z,101372.38
2022-08-03T19:48:29.386Z,101374.28
2022-08-03T19:53:36.560Z,101375.00
2022-08-03T19:58:45.342Z,101372.81
2022-08-03T20:03:55.063Z,101372.03
2022-08-03T20:08:58.701Z,101370.22
2022-08-03T20:14:01.659Z,101360.03
2022-08-03T20:19:03.183Z,101366.69
2022-08-03T20:24:32.660Z,101363.16
2022-08-03T20:30:06.429Z,101352.72
2022-08-03T20:35:09.956Z,101356.59
2022-08-03T20:40:13.882Z,101353.44
2022-08-03T20:46:01.009Z,101358.41
2022-08-03T20:50:40.712Z,101347.09
2022-08-03T20:55:48.005Z,101342.44
2022-08-03T21:01:04.346Z,101344.03
2022-08-03T21:06:07.707Z,101342.81
2022-08-03T21:11:18.004Z,101338.09
2022-08-03T21:16:21.456Z,101334.06
2022-08-03T21:21:24.009Z,101331.88
2022-08-03T21:26:27.038Z,101335.19
2022-08-03T21:31:28.712Z,101326.13
2022-08-03T21:36:32.970Z,101324.09
2022-08-03T21:41:36.005Z,101322.06
2022-08-03T21:46:40.452Z,101310.56
2022-08-03T21:51:42.316Z,101308.63
2022-08-03T21:56:48.284Z,101285.56
2022-08-03T22:01:55.389Z,101303.16
2022-08-03T22:07:00.980Z,101300.19
2022-08-03T22:12:03.016Z,101293.78
2022-08-03T22:17:07.175Z,101306.94
2022-08-03T22:22:13.746Z,101308.88
2022-08-03T22:27:32.193Z,101306.53
2022-08-03T22:32:33.779Z,101307.88
2022-08-03T22:37:36.087Z,101300.69
2022-08-03T22:42:39.284Z,101303.22
2022-08-03T22:47:41.657Z,101300.44
2022-08-03T22:52:44.326Z,101296.63
2022-08-03T22:57:45.958Z,101288.19
2022-08-03T23:03:00.366Z,101291.91
2022-08-03T23:08:03.886Z,101290.81
2022-08-03T23:13:06.763Z,101294.03
2022-08-03T23:18:09.451Z,101298.16
2022-08-03T23:23:11.293Z,101297.16
2022-08-03T23:28:18.155Z,101299.44
2022-08-03T23:33:21.569Z,101287.72
2022-08-03T23:38:24.921Z,101286.47
2022-08-03T23:43:51.381Z,101284.13
2022-08-03T23:48:50.758Z,101287.09
2022-08-03T23:54:01.933Z,101288.63
2022-08-03T23:59:12.681Z,101285.47
